Time,TemperatureF,DewpointF,PressureIn,WindDirection,WindDirectionDegrees,WindSpeedMPH,WindSpeedGustMPH,Humidity,HourlyPrecipIn,Conditions,Clouds,dailyrainin,SoftwareType,DateUTC
2013-06-23 00:00:00,61.6,55.0,30.02,SSW,203,0.0,0.0,79,0.00,,,0.00,WUHU216HW,2013-06-23 07:00:00,
2013-06-23 00:05:00,61.6,55.0,30.02,SSW,203,0.0,0.0,79,0.00,,,0.00,WUHU216HW,2013-06-23 07:05:00,
2013-06-23 00:10:00,61.6,55.0,30.02,SSW,203,0.0,0.0,79,0.00,,,0.00,WUHU216HW,2013-06-23 07:10:00,
2013-06-23 00:30:00,61.2,55.1,30.01,SSW,203,0.0,0.0,80,0.00,,,0.00,WUHU216HW,2013-06-23 07:30:00,
2013-06-23 00:35:00,61.2,54.7,30.01,SSW,203,0.0,0.0,79,0.00,,,0.00,WUHU216HW,2013-06-23 07:35:00,
2013-06-23 00:40:00,61.2,54.7,30.01,SSW,203,0.0,0.0,79,0.00,,,0.00,WUHU216HW,2013-06-23 07:40:00,
2013-06-23 01:00:00,61.0,54.6,30.00,WSW,248,0.0,0.0,79,0.00,,,0.00,WUHU216HW,2013-06-23 08:00:00,
2013-06-23 01:05:00,61.0,54.9,30.00,WSW,248,0.0,0.0,80,0.00,,,0.00,WUHU216HW,2013-06-23 08:05:00,
2013-06-23 01:10:00,61.0,54.9,30.00,WSW,248,0.0,0.0,80,0.00,,,0.00,WUHU216HW,2013-06-23 08:10:00,
2013-06-23 01:30:00,60.8,54.4,29.99,SSE,158,0.0,0.0,79,0.00,,,0.00,WUHU216HW,2013-06-23 08:30:00,
2013-06-23 01:35:00,60.8,54.4,29.99,SSE,158,0.0,0.0,79,0.00,,,0.00,WUHU216HW,2013-06-23 08:35:00,
2013-06-23 01:40:00,60.8,54.4,29.99,SSE,158,0.0,0.0,79,0.00,,,0.00,WUHU216HW,2013-06-23 08:40:00,
2013-06-23 02:00:00,60.5,55.0,29.99,WNW,293,0.0,0.0,82,0.00,,,0.00,WUHU216HW,2013-06-23 09:00:00,
2013-06-23 02:05:00,60.5,55.0,29.99,West,270,0.0,0.0,82,0.00,,,0.00,WUHU216HW,2013-06-23 09:05:00,
2013-06-23 02:10:00,60.5,55.0,29.99,West,270,0.0,0.0,82,0.00,,,0.00,WUHU216HW,2013-06-23 09:10:00,
2013-06-23 02:30:00,60.5,55.0,29.99,NW,315,0.2,0.2,82,0.00,,,0.00,WUHU216HW,2013-06-23 09:30:00,
2013-06-23 02:35:00,60.5,55.0,29.99,NW,315,0.2,0.2,82,0.00,,,0.00,WUHU216HW,2013-06-23 09:35:00,
2013-06-23 02:40:00,60.5,55.0,29.99,NW,315,0.2,0.2,82,0.00,,,0.00,WUHU216HW,2013-06-23 09:40:00,
2013-06-23 03:00:00,59.9,54.8,29.98,SSE,158,0.0,0.0,83,0.00,,,0.00,WUHU216HW,2013-06-23 10:00:00,
2013-06-23 03:05:00,59.9,54.5,29.98,SSE,158,0.0,0.0,82,0.00,,,0.00,WUHU216HW,2013-06-23 10:05:00,
2013-06-23 03:10:00,59.9,54.5,29.98,SSE,158,0.0,0.0,82,0.00,,,0.00,WUHU216HW,2013-06-23 10:10:00,
2013-06-23 03:30:00,59.8,54.6,29.98,WSW,248,0.2,0.2,83,0.00,,,0.00,WUHU216HW,2013-06-23 10:30:00,
2013-06-23 03:35:00,59.8,54.6,29.98,WSW,248,0.0,0.2,83,0.00,,,0.00,WUHU216HW,2013-06-23 10:35:00,
2013-06-23 03:40:00,59.8,54.6,29.98,WSW,248,0.0,0.0,83,0.00,,,0.00,WUHU216HW,2013-06-23 10:40:00,
2013-06-23 04:00:00,59.6,54.7,29.97,West,270,0.0,0.0,84,0.00,,,0.00,WUHU216HW,2013-06-23 11:00:00,
2013-06-23 04:05:00,59.6,54.7,29.97,West,270,0.0,0.0,84,0.00,,,0.00,WUHU216HW,2013-06-23 11:05:00,
2013-06-23 04:10:00,59.6,54.7,29.97,West,270,0.0,0.0,84,0.00,,,0.00,WUHU216HW,2013-06-23 11:10:00,
2013-06-23 04:30:00,59.0,54.9,29.97,SW,225,0.0,0.0,86,0.00,,,0.00,WUHU216HW,2013-06-23 11:30:00,
2013-06-23 04:35:00,59.0,54.9,29.97,SW,225,0.0,0.0,86,0.00,,,0.00,WUHU216HW,2013-06-23 11:35:00,
2013-06-23 04:40:00,59.0,54.9,29.97,SW,225,0.0,0.0,86,0.00,,,0.00,WUHU216HW,2013-06-23 11:40:00,
2013-06-23 05:00:00,58.9,54.7,29.97,SW,225,0.0,0.0,86,0.00,,,0.00,WUHU216HW,2013-06-23 12:00:00,
2013-06-23 05:05:00,58.9,54.7,29.97,SW,225,0.0,0.0,86,0.00,,,0.00,WUHU216HW,2013-06-23 12:05:00,
2013-06-23 05:10:00,58.9,54.7,29.97,SW,225,0.0,0.0,86,0.00,,,0.00,WUHU216HW,2013-06-23 12:10:00,
2013-06-23 05:30:00,58.5,54.6,29.96,SSW,203,0.0,0.0,87,0.00,,,0.00,WUHU216HW,2013-06-23 12:30:00,
2013-06-23 05:35:00,58.5,54.6,29.96,SSW,203,0.0,0.0,87,0.00,,,0.00,WUHU216HW,2013-06-23 12:35:00,
2013-06-23 05:40:00,58.5,54.6,29.96,SSW,203,0.0,0.0,87,0.00,,,0.00,WUHU216HW,2013-06-23 12:40:00,
2013-06-23 06:00:00,58.5,55.3,29.95,SSW,203,0.0,0.0,89,0.00,,,0.00,WUHU216HW,2013-06-23 13:00:00,
2013-06-23 06:05:00,58.3,55.1,29.95,SSW,203,0.0,0.0,89,0.00,,,0.00,WUHU216HW,2013-06-23 13:05:00,
2013-06-23 06:10:00,58.3,55.1,29.95,SSW,203,0.0,0.0,89,0.00,,,0.00,WUHU216HW,2013-06-23 13:10:00,
2013-06-23 06:30:00,58.7,55.4,29.95,SSW,203,0.0,0.0,89,0.00,,,0.00,WUHU216HW,2013-06-23 13:30:00,
2013-06-23 06:35:00,58.7,55.4,29.95,SSW,203,0.0,0.0,89,0.00,,,0.00,WUHU216HW,2013-06-23 13:35:00,
2013-06-23 07:00:00,58.9,56.0,29.94,ESE,113,0.0,0.0,90,0.00,,,0.00,WUHU216HW,2013-06-23 14:00:00,
2013-06-23 07:05:00,58.9,56.0,29.94,ESE,113,0.0,0.0,90,0.00,,,0.00,WUHU216HW,2013-06-23 14:05:00,
2013-06-23 07:10:00,58.9,56.0,29.94,ESE,113,0.0,0.0,90,0.00,,,0.00,WUHU216HW,2013-06-23 14:10:00,
2013-06-23 07:30:00,59.6,56.3,29.94,SSE,158,0.0,0.0,89,0.00,,,0.00,WUHU216HW,2013-06-23 14:30:00,
2013-06-23 07:35:00,59.4,56.2,29.94,SSE,158,0.0,0.0,89,0.00,,,0.00,WUHU216HW,2013-06-23 14:35:00,
2013-06-23 07:40:00,59.4,56.2,29.94,SSE,158,0.0,0.0,89,0.00,,,0.00,WUHU216HW,2013-06-23 14:40:00,
2013-06-23 08:00:00,61.2,57.3,29.93,SSW,203,0.4,0.4,87,0.00,,,0.00,WUHU216HW,2013-06-23 15:00:00,
2013-06-23 08:05:00,61.2,57.3,29.93,SSW,203,0.2,0.4,87,0.00,,,0.00,WUHU216HW,2013-06-23 15:05:00,
2013-06-23 08:10:00,61.2,57.3,29.93,SSW,203,0.2,0.2,87,0.00,,,0.00,WUHU216HW,2013-06-23 15:10:00,
2013-06-23 08:30:00,62.5,57.9,29.93,NE,45,0.2,0.2,85,0.00,,,0.00,WUHU216HW,2013-06-23 15:30:00,
2013-06-23 08:35:00,62.5,57.9,29.93,NE,45,0.2,0.2,85,0.00,,,0.00,WUHU216HW,2013-06-23 15:35:00,
2013-06-23 08:40:00,62.5,57.9,29.93,NE,45,0.2,0.2,85,0.00,,,0.00,WUHU216HW,2013-06-23 15:40:00,
2013-06-23 09:00:00,63.7,58.2,29.92,South,180,0.0,0.0,82,0.00,,,0.00,WUHU216HW,2013-06-23 16:00:00,
2013-06-23 09:05:00,63.7,58.2,29.92,South,180,0.0,0.0,82,0.00,,,0.00,WUHU216HW,2013-06-23 16:05:00,
2013-06-23 09:30:00,64.6,59.1,29.92,ESE,113,0.0,0.0,82,0.00,,,0.00,WUHU216HW,2013-06-23 16:30:00,
2013-06-23 09:35:00,64.6,59.1,29.92,ESE,113,0.0,0.0,82,0.00,,,0.00,WUHU216HW,2013-06-23 16:35:00,
2013-06-23 09:40:00,64.6,59.1,29.92,ESE,113,0.0,0.0,82,0.00,,,0.00,WUHU216HW,2013-06-23 16:40:00,
2013-06-23 10:00:00,66.1,59.8,29.91,ENE,68,0.2,0.2,80,0.00,,,0.00,WUHU216HW,2013-06-23 17:00:00,
2013-06-23 10:03:00,66.1,59.8,29.91,ENE,68,0.2,0.2,80,0.00,,,0.00,WUHU216HW,2013-06-23 17:03:00,
2013-06-23 10:08:00,66.1,59.8,29.91,ENE,68,0.2,0.2,80,0.00,,,0.00,WUHU216HW,2013-06-23 17:08:00,
2013-06-23 10:30:00,68.2,60.4,29.90,North,0,0.0,0.0,76,0.00,,,0.00,WUHU216HW,2013-06-23 17:30:00,
2013-06-23 10:35:00,68.2,60.4,29.90,North,0,0.0,0.0,76,0.00,,,0.00,WUHU216HW,2013-06-23 17:35:00,
2013-06-23 10:40:00,68.2,60.4,29.90,North,0,0.0,0.0,76,0.00,,,0.00,WUHU216HW,2013-06-23 17:40:00,
2013-06-23 11:00:00,67.9,59.7,29.89,ESE,113,0.0,0.0,75,0.00,,,0.00,WUHU216HW,2013-06-23 18:00:00,
2013-06-23 11:05:00,67.7,59.5,29.89,ESE,113,0.0,0.0,75,0.00,,,0.00,WUHU216HW,2013-06-23 18:05:00,
2013-06-23 11:10:00,67.7,59.5,29.89,ESE,113,0.0,0.0,75,0.00,,,0.00,WUHU216HW,2013-06-23 18:10:00,
2013-06-23 11:30:00,69.7,60.9,29.89,South,180,0.4,0.4,74,0.00,,,0.00,WUHU216HW,2013-06-23 18:30:00,
2013-06-23 11:35:00,69.7,60.9,29.89,South,180,0.4,0.4,74,0.00,,,0.00,WUHU216HW,2013-06-23 18:35:00,
2013-06-23 11:40:00,69.7,60.9,29.89,South,180,0.4,0.4,74,0.00,,,0.00,WUHU216HW,2013-06-23 18:40:00,
2013-06-23 12:00:00,70.4,60.5,29.89,North,0,0.2,0.2,71,0.00,,,0.00,WUHU216HW,2013-06-23 19:00:00,
2013-06-23 12:05:00,70.6,60.7,29.89,North,0,0.2,0.2,71,0.00,,,0.00,WUHU216HW,2013-06-23 19:05:00,
2013-06-23 12:10:00,70.6,60.7,29.89,North,0,0.2,0.2,71,0.00,,,0.00,WUHU216HW,2013-06-23 19:10:00,
2013-06-23 12:30:00,70.9,61.0,29.87,ESE,113,0.2,0.2,71,0.00,,,0.00,WUHU216HW,2013-06-23 19:30:00,
2013-06-23 12:35:00,70.9,61.0,29.87,WSW,248,0.0,0.2,71,0.00,,,0.00,WUHU216HW,2013-06-23 19:35:00,
2013-06-23 12:40:00,70.9,61.0,29.87,WSW,248,0.0,0.2,71,0.00,,,0.00,WUHU216HW,2013-06-23 19:40:00,
2013-06-23 13:00:00,68.8,61.7,29.87,SSW,203,0.0,0.0,78,0.00,,,0.00,WUHU216HW,2013-06-23 20:00:00,
2013-06-23 13:05:00,68.8,61.7,29.87,SSW,203,0.0,0.0,78,0.00,,,0.00,WUHU216HW,2013-06-23 20:05:00,
2013-06-23 13:10:00,68.8,61.7,29.87,SSW,203,0.0,0.0,78,0.00,,,0.00,WUHU216HW,2013-06-23 20:10:00,
2013-06-23 13:30:00,68.8,61.7,29.86,SSW,203,0.7,0.7,78,0.00,,,0.00,WUHU216HW,2013-06-23 20:30:00,
2013-06-23 13:35:00,68.8,62.0,29.86,NW,315,0.7,0.7,79,0.00,,,0.00,WUHU216HW,2013-06-23 20:35:00,
2013-06-23 13:40:00,68.8,62.0,29.86,NW,315,0.7,0.7,79,0.00,,,0.00,WUHU216HW,2013-06-23 20:40:00,
2013-06-23 14:00:00,70.2,63.4,29.84,South,180,0.7,0.7,79,0.00,,,0.00,WUHU216HW,2013-06-23 21:00:00,
2013-06-23 14:05:00,70.2,63.4,29.84,South,180,0.7,0.7,79,0.00,,,0.00,WUHU216HW,2013-06-23 21:05:00,
2013-06-23 14:10:00,70.2,63.4,29.84,South,180,0.7,0.7,79,0.00,,,0.00,WUHU216HW,2013-06-23 21:10:00,
2013-06-23 14:30:00,69.8,62.7,29.84,WNW,293,0.2,0.2,78,0.00,,,0.00,WUHU216HW,2013-06-23 21:30:00,
2013-06-23 14:35:00,69.8,62.7,29.84,WNW,293,0.2,0.2,78,0.00,,,0.00,WUHU216HW,2013-06-23 21:35:00,
2013-06-23 14:40:00,69.8,62.7,29.84,WNW,293,0.2,0.2,78,0.00,,,0.00,WUHU216HW,2013-06-23 21:40:00,
2013-06-23 15:00:00,68.8,62.7,29.83,South,180,0.2,0.2,81,0.00,,,0.00,WUHU216HW,2013-06-23 22:00:00,
2013-06-23 15:05:00,68.8,62.7,29.83,SSW,203,0.4,0.4,81,0.00,,,0.00,WUHU216HW,2013-06-23 22:05:00,
2013-06-23 15:10:00,68.8,62.7,29.83,SSW,203,0.4,0.4,81,0.00,,,0.00,WUHU216HW,2013-06-23 22:10:00,
2013-06-23 15:30:00,68.4,62.1,29.83,NNE,23,1.8,1.8,80,0.00,,,0.00,WUHU216HW,2013-06-23 22:30:00,
2013-06-23 15:35:00,68.4,62.1,29.83,NNE,23,1.8,1.8,80,0.00,,,0.00,WUHU216HW,2013-06-23 22:35:00,
2013-06-23 15:40:00,68.4,62.1,29.83,NNE,23,1.8,1.8,80,0.00,,,0.00,WUHU216HW,2013-06-23 22:40:00,
2013-06-23 16:00:00,63.0,58.4,29.84,NW,315,0.0,0.0,85,0.00,,,0.00,WUHU216HW,2013-06-23 23:00:00,
2013-06-23 16:05:00,63.0,58.4,29.84,SE,135,0.4,0.4,85,0.00,,,0.00,WUHU216HW,2013-06-23 23:05:00,
2013-06-23 16:10:00,63.0,58.4,29.84,SE,135,0.4,0.4,85,0.00,,,0.00,WUHU216HW,2013-06-23 23:10:00,
2013-06-23 16:30:00,62.3,58.7,29.84,SE,135,0.0,0.0,88,0.00,,,0.00,WUHU216HW,2013-06-23 23:30:00,
2013-06-23 16:35:00,62.3,58.7,29.84,SE,135,0.0,0.0,88,0.00,,,0.00,WUHU216HW,2013-06-23 23:35:00,
2013-06-23 16:40:00,62.3,58.7,29.84,SE,135,0.0,0.0,88,0.00,,,0.00,WUHU216HW,2013-06-23 23:40:00,
2013-06-23 17:00:00,61.6,58.3,29.84,SE,135,0.0,0.0,89,0.00,,,0.00,WUHU216HW,2013-06-24 00:00:00,
2013-06-23 17:05:00,61.6,58.3,29.84,NW,315,0.2,0.2,89,0.00,,,0.00,WUHU216HW,2013-06-24 00:05:00,
2013-06-23 17:10:00,61.6,58.3,29.84,NW,315,0.2,0.2,89,0.00,,,0.00,WUHU216HW,2013-06-24 00:10:00,
2013-06-23 17:30:00,61.6,58.7,29.83,WNW,293,0.0,0.0,90,0.00,,,0.00,WUHU216HW,2013-06-24 00:30:00,
2013-06-23 17:35:00,61.6,58.7,29.83,WNW,293,0.0,0.0,90,0.00,,,0.00,WUHU216HW,2013-06-24 00:35:00,
2013-06-23 17:40:00,61.6,58.7,29.83,WNW,293,0.0,0.0,90,0.00,,,0.00,WUHU216HW,2013-06-24 00:40:00,
2013-06-23 18:00:00,62.3,59.4,29.82,WSW,248,0.0,0.0,90,0.00,,,0.00,WUHU216HW,2013-06-24 01:00:00,
2013-06-23 18:05:00,62.3,59.4,29.82,WSW,248,0.0,0.0,90,0.00,,,0.00,WUHU216HW,2013-06-24 01:05:00,
2013-06-23 18:10:00,62.3,59.4,29.82,WSW,248,0.0,0.0,90,0.00,,,0.00,WUHU216HW,2013-06-24 01:10:00,
2013-06-23 18:30:00,62.5,59.6,29.81,WNW,293,0.4,0.4,90,0.00,,,0.00,WUHU216HW,2013-06-24 01:30:00,
2013-06-23 18:35:00,62.5,59.6,29.81,WNW,293,0.0,0.4,90,0.00,,,0.00,WUHU216HW,2013-06-24 01:35:00,
2013-06-23 18:40:00,62.5,59.6,29.81,WNW,293,0.0,0.0,90,0.00,,,0.00,WUHU216HW,2013-06-24 01:40:00,
2013-06-23 19:00:00,63.7,60.5,29.80,North,0,0.2,0.2,89,0.00,,,0.00,WUHU216HW,2013-06-24 02:00:00,
2013-06-23 19:05:00,63.7,60.5,29.80,ENE,68,0.0,0.2,89,0.00,,,0.00,WUHU216HW,2013-06-24 02:05:00,
2013-06-23 19:10:00,63.7,60.5,29.80,ENE,68,0.0,0.0,89,0.00,,,0.00,WUHU216HW,2013-06-24 02:10:00,
2013-06-23 19:30:00,62.6,59.4,29.80,South,180,0.0,0.0,89,0.00,,,0.00,WUHU216HW,2013-06-24 02:30:00,
2013-06-23 19:35:00,62.6,59.4,29.80,South,180,0.0,0.0,89,0.00,,,0.00,WUHU216HW,2013-06-24 02:35:00,
2013-06-23 19:40:00,62.6,59.4,29.80,South,180,0.0,0.0,89,0.00,,,0.00,WUHU216HW,2013-06-24 02:40:00,
2013-06-23 20:00:00,62.5,59.6,29.80,South,180,0.0,0.0,90,0.00,,,0.00,WUHU216HW,2013-06-24 03:00:00,
2013-06-23 20:05:00,62.5,59.6,29.80,South,180,0.0,0.0,90,0.00,,,0.00,WUHU216HW,2013-06-24 03:05:00,
2013-06-23 20:10:00,62.5,59.6,29.80,South,180,0.0,0.0,90,0.00,,,0.00,WUHU216HW,2013-06-24 03:10:00,
2013-06-23 20:30:00,61.7,58.9,29.79,South,180,0.0,0.0,90,0.00,,,0.00,WUHU216HW,2013-06-24 03:30:00,
2013-06-23 20:35:00,61.7,58.9,29.79,South,180,0.0,0.0,90,0.00,,,0.00,WUHU216HW,2013-06-24 03:35:00,
2013-06-23 20:40:00,61.7,58.9,29.79,South,180,0.0,0.0,90,0.00,,,0.00,WUHU216HW,2013-06-24 03:40:00,
2013-06-23 21:00:00,61.4,58.8,29.79,SSE,158,0.0,0.0,91,0.00,,,0.00,WUHU216HW,2013-06-24 04:00:00,
2013-06-23 21:01:00,61.4,58.8,29.79,SSE,158,0.0,0.0,91,0.00,,,0.00,WUHU216HW,2013-06-24 04:01:00,
2013-06-23 21:06:00,61.4,58.8,29.79,SSE,158,0.0,0.0,91,0.00,,,0.00,WUHU216HW,2013-06-24 04:06:00,
2013-06-23 21:30:00,61.2,58.9,29.79,SSE,158,0.0,0.0,92,0.00,,,0.00,WUHU216HW,2013-06-24 04:30:00,
2013-06-23 21:35:00,61.2,58.9,29.79,SSE,158,0.0,0.0,92,0.00,,,0.00,WUHU216HW,2013-06-24 04:35:00,
2013-06-23 21:40:00,61.2,58.9,29.79,SSE,158,0.0,0.0,92,0.00,,,0.00,WUHU216HW,2013-06-24 04:40:00,
2013-06-23 22:00:00,60.8,58.5,29.79,SSE,158,0.0,0.0,92,0.00,,,0.00,WUHU216HW,2013-06-24 05:00:00,
2013-06-23 22:05:00,61.0,58.7,29.79,SSE,158,0.0,0.0,92,0.00,,,0.00,WUHU216HW,2013-06-24 05:05:00,
2013-06-23 22:10:00,61.0,58.7,29.79,SSE,158,0.0,0.0,92,0.00,,,0.00,WUHU216HW,2013-06-24 05:10:00,
2013-06-23 22:30:00,60.7,58.3,29.79,SSE,158,0.0,0.0,92,0.00,,,0.00,WUHU216HW,2013-06-24 05:30:00,
2013-06-23 22:35:00,60.7,58.3,29.79,SSE,158,0.0,0.0,92,0.00,,,0.00,WUHU216HW,2013-06-24 05:35:00,
2013-06-23 22:40:00,60.7,58.3,29.79,SSE,158,0.0,0.0,92,0.00,,,0.00,WUHU216HW,2013-06-24 05:40:00,
2013-06-23 23:00:00,60.7,58.3,29.78,South,180,0.0,0.0,92,0.00,,,0.00,WUHU216HW,2013-06-24 06:00:00,
2013-06-23 23:05:00,60.7,58.3,29.78,South,180,0.0,0.0,92,0.00,,,0.00,WUHU216HW,2013-06-24 06:05:00,
2013-06-23 23:30:00,60.3,58.0,29.77,South,180,0.0,0.0,92,0.00,,,0.00,WUHU216HW,2013-06-24 06:30:00,
2013-06-23 23:36:00,60.3,58.0,29.77,South,180,0.0,0.0,92,0.00,,,0.00,WUHU216HW,2013-06-24 06:36:00,